Aérodrome :
LOGIN :

S'inscrire | Disclaimer

   EN    FR    IT 

 










Légende :    VFR   VFR Marginal   IFR   IFR Intensif   IFR Très Intensif
Visi : 
Plafond : 
>= 8 km
>= 3000ft
5 à 8 km
1000 à 3000 ft
1500m à 5 km
500 à 1000 ft
800 à 1500m
200 à 500 ft
< 800m
< 200 ft
Symboles :   Orages  Brouillard  Fortes neiges  Fortes précipitations  Vent > 20 kt
SIGMETs :   Divers  Orages  Givrage  Turbulence  Onde Orograph.  Cendres Volcan.







- Altitude de l'aérodrome : 423 ft
- Code IATA : PIS
- Voir les cartes d'approche


LFBI - Poitiers

DERNIER METAR :
  • 271230Z AUTO 21009KT 180V240 9999 FEW015/// SCT070/// OVC084/// ///TCU 19/14 Q1013 TEMPO 4000 -RADZ BECMG BKN018

METARs EXPIRÉS :
  • 271200Z AUTO 22008KT 9999 FEW011/// SCT052/// OVC064/// ///TCU 18/15 Q1014 TEMPO 4000 -RADZ BKN008
  • 271130Z AUTO 24012KT 9999 SCT019/// BKN024/// BKN032/// 17/14 Q1014 TEMPO 4000 -RADZ BKN008
  • 271100Z AUTO 24009KT 190V280 9999 BKN020/// BKN025/// BKN031/// 19/14 Q1014 TEMPO 4000 RA BKN008
  • 271030Z AUTO 24009KT 210V280 9999 FEW017/// SCT024/// BKN036/// 18/14 Q1014 TEMPO 4000 RA BKN008
  • 271000Z AUTO 23008KT 200V260 9999 OVC015/// 17/13 Q1014 TEMPO 4000 RA BKN008

TAF TAF LFBI
Valide du 27 à 12h jusqu'au 28 à 12h UTC


271100Z 2712/2812 28005KT 9999 BKN018
PROB30
TEMPO 2712/2714 4000 -RADZ BKN008
TEMPO 2715/2722 4000 -SHRA BKN030TCU
TEMPO 2808/2812 -SHRA BKN030TCU
Pas de NOTAMs connus pour ce terrain.



MET'MAP, la Météo Aéronautique d'un coup d'oeil ! - Copyright ORBIFLY Décembre 2007 - Disclaimer

ORBIFLY MET'MAP TEAM :

Programmation & Développement : Alexandra Zaïnal
Conception & Développement : Baudouin d'Aumeries
Co-Programmation & Développement : Marc-Olivier Méhu
Soutien technique & logistique : Manuel Goepfert

Contact : metmap@orbifly.com




SOURCES & CREDITS :

   NOAA